createdAt,value
2019-02-20T00:08:58.050Z,6.70
2019-02-20T00:24:15.305Z,6.60
2019-02-20T00:39:32.669Z,6.60
2019-02-20T00:54:37.711Z,6.40
2019-02-20T01:09:54.508Z,6.40
2019-02-20T01:24:59.349Z,6.40
2019-02-20T01:40:06.288Z,6.40
2019-02-20T01:55:12.116Z,6.30
2019-02-20T02:10:36.319Z,6.30
2019-02-20T02:25:42.080Z,6.30
2019-02-20T02:40:47.514Z,6.20
2019-02-20T02:55:52.948Z,6.10
2019-02-20T03:10:58.137Z,6.10
2019-02-20T03:26:15.552Z,6.10
2019-02-20T03:41:20.468Z,6.20
2019-02-20T03:56:25.895Z,6.10
2019-02-20T04:11:30.749Z,6.00
2019-02-20T04:26:37.828Z,5.70
2019-02-20T04:41:44.177Z,5.50
2019-02-20T04:56:49.191Z,5.30
2019-02-20T05:11:53.990Z,5.20
2019-02-20T05:26:58.903Z,5.30
2019-02-20T05:42:04.014Z,5.30
2019-02-20T05:57:09.277Z,5.30
2019-02-20T06:12:33.409Z,5.40
2019-02-20T06:27:38.330Z,5.40
2019-02-20T06:42:44.304Z,5.50
2019-02-20T06:57:50.274Z,5.40
2019-02-20T07:12:58.619Z,5.30
2019-02-20T07:28:06.570Z,5.50
2019-02-20T07:43:11.646Z,5.60
2019-02-20T07:58:18.619Z,5.80
2019-02-20T08:13:23.736Z,6.40
2019-02-20T08:28:28.612Z,6.40
2019-02-20T08:43:34.097Z,6.50
2019-02-20T08:58:51.058Z,6.60
2019-02-20T09:14:07.868Z,6.60
2019-02-20T09:29:12.671Z,6.50
2019-02-20T09:44:17.470Z,6.20
2019-02-20T09:59:35.600Z,6.30
2019-02-20T10:14:40.782Z,6.10
2019-02-20T10:29:45.870Z,6.90
2019-02-20T10:44:51.031Z,7.90
2019-02-20T11:00:24.035Z,8.30
2019-02-20T11:15:37.880Z,8.40
2019-02-20T11:30:43.567Z,8.40
2019-02-20T11:45:48.603Z,8.00
2019-02-20T12:00:58.330Z,7.90
2019-02-20T12:16:03.270Z,7.70
2019-02-20T12:31:08.553Z,8.00
2019-02-20T12:46:14.245Z,8.10
2019-02-20T13:01:19.572Z,7.90
2019-02-20T13:16:24.563Z,8.00
2019-02-20T13:31:41.740Z,8.00
2019-02-20T13:46:46.623Z,7.70
2019-02-20T14:01:51.821Z,7.50
2019-02-20T14:16:56.869Z,7.40
2019-02-20T14:32:15.235Z,7.50
2019-02-20T14:47:20.427Z,7.50
2019-02-20T15:02:25.559Z,7.50
2019-02-20T15:17:31.637Z,7.40
2019-02-20T15:32:36.957Z,7.40
2019-02-20T15:47:46.206Z,7.40
2019-02-20T16:02:52.581Z,7.20
2019-02-20T16:18:09.901Z,7.10
2019-02-20T16:33:26.708Z,7.20
2019-02-20T16:48:31.700Z,6.90
2019-02-20T17:03:36.758Z,6.70
2019-02-20T17:18:41.755Z,6.60
2019-02-20T17:33:46.700Z,6.50
2019-02-20T17:48:51.868Z,6.60
2019-02-20T18:04:08.910Z,6.80
2019-02-20T18:19:25.864Z,6.50
2019-02-20T18:34:30.512Z,6.30
2019-02-20T18:49:35.397Z,6.10
2019-02-20T19:04:40.769Z,5.80
2019-02-20T19:20:08.152Z,5.20
2019-02-20T19:35:14.219Z,4.70
2019-02-20T19:50:21.989Z,4.30
2019-02-20T20:05:29.900Z,3.90
2019-02-20T20:20:38.031Z,3.40
2019-02-20T20:35:42.178Z,3.00
2019-02-20T20:51:12.077Z,2.70
2019-02-20T21:06:21.886Z,2.30
2019-02-20T21:21:31.104Z,2.00
2019-02-20T21:36:48.207Z,1.80
2019-02-20T21:52:04.970Z,1.70
2019-02-20T22:07:12.996Z,1.50
2019-02-20T22:22:20.787Z,1.40
2019-02-20T22:37:47.562Z,1.30
2019-02-20T22:52:55.630Z,1.20
2019-02-20T23:08:03.667Z,1.20
2019-02-20T23:23:08.624Z,1.30
2019-02-20T23:38:13.509Z,1.60
2019-02-20T23:53:18.789Z,1.80
